Time;durP1;ratioP1;P1;durP2;ratioP2;P2;SDS_P1;SDS_P2;PMS_P1;PMS_P2;Temp;Humidity;BMP_temperature;BMP_pressure;BME280_temperature;BME280_humidity;BME280_pressure;Samples;Min_cycle;Max_cycle;Signal;HPM_P1;HPM_P2
2022/02/27 00:00:29;;;;;;;25.55;15.57;;;3.80;69.60;;;;;;5093654;28;20056;-88
2022/02/27 00:02:56;;;;;;;23.48;14.90;;;3.70;69.70;;;;;;5093771;28;20085;-88
2022/02/27 00:05:24;;;;;;;27.33;15.50;;;3.70;69.70;;;;;;5093248;28;20048;-88
2022/02/27 00:07:51;;;;;;;26.02;14.25;;;3.70;69.80;;;;;;5094055;28;20044;-87
2022/02/27 00:10:20;;;;;;;25.60;13.90;;;3.60;69.80;;;;;;5093354;28;20056;-87
2022/02/27 00:12:48;;;;;;;22.52;13.60;;;3.60;69.80;;;;;;5093279;28;20044;-87
2022/02/27 00:15:16;;;;;;;25.10;13.23;;;3.60;69.90;;;;;;5093354;28;20052;-86
2022/02/27 00:17:43;;;;;;;27.17;14.52;;;3.60;69.90;;;;;;5093411;28;20040;-86
2022/02/27 00:20:12;;;;;;;23.23;13.43;;;3.50;69.90;;;;;;5075508;28;20113;-86
2022/02/27 00:22:39;;;;;;;21.77;12.15;;;3.50;70.00;;;;;;5093413;28;20044;-86
2022/02/27 00:25:07;;;;;;;19.42;11.30;;;3.50;70.00;;;;;;5093271;28;20105;-86
2022/02/27 00:27:35;;;;;;;19.35;11.70;;;3.50;70.10;;;;;;5093131;28;20055;-86
2022/02/27 00:30:05;;;;;;;23.33;11.32;;;3.50;70.10;;;;;;5093148;28;20044;-86
2022/02/27 00:32:32;;;;;;;26.17;12.07;;;3.40;70.20;;;;;;5075032;28;20051;-85
2022/02/27 00:34:59;;;;;;;19.08;10.75;;;3.40;70.20;;;;;;5093297;28;20097;-85
2022/02/27 00:37:26;;;;;;;19.30;10.90;;;3.40;70.30;;;;;;5092951;28;20048;-85
2022/02/27 00:39:52;;;;;;;18.25;11.02;;;3.40;70.30;;;;;;5092883;28;20048;-84
2022/02/27 00:42:19;;;;;;;17.73;10.27;;;3.40;70.30;;;;;;5092960;28;20132;-85
2022/02/27 00:44:46;;;;;;;20.58;10.43;;;3.40;70.40;;;;;;5093255;28;20048;-85
2022/02/27 00:47:13;;;;;;;15.88;10.20;;;3.40;70.40;;;;;;5075283;28;20048;-84
2022/02/27 00:49:40;;;;;;;18.75;10.30;;;3.30;70.40;;;;;;5092930;28;20051;-85
2022/02/27 00:52:09;;;;;;;20.42;10.50;;;3.30;70.40;;;;;;5092696;28;20097;-83
2022/02/27 00:54:36;;;;;;;24.27;11.25;;;3.30;70.40;;;;;;5092615;28;20090;-84
2022/02/27 00:57:03;;;;;;;16.63;10.73;;;3.30;70.50;;;;;;5092828;28;20044;-84
2022/02/27 00:59:30;;;;;;;21.83;11.80;;;3.20;70.50;;;;;;5092912;28;20056;-84
2022/02/27 01:01:57;;;;;;;21.35;11.73;;;3.20;70.50;;;;;;5093397;28;20048;-84
2022/02/27 01:04:25;;;;;;;18.95;11.90;;;3.20;70.60;;;;;;5092381;28;20048;-84
2022/02/27 01:06:52;;;;;;;24.33;12.20;;;3.20;70.60;;;;;;5092413;28;20047;-84
2022/02/27 01:09:19;;;;;;;21.75;12.82;;;3.20;70.60;;;;;;5092655;28;20052;-84
2022/02/27 01:11:46;;;;;;;22.15;12.10;;;3.10;70.70;;;;;;5092733;28;20044;-84
2022/02/27 01:14:13;;;;;;;19.90;12.07;;;3.10;70.70;;;;;;5092617;28;20048;-84
2022/02/27 01:16:40;;;;;;;25.83;12.55;;;3.10;70.70;;;;;;5092790;28;20116;-84
2022/02/27 01:19:08;;;;;;;19.77;11.60;;;3.10;70.80;;;;;;5092043;28;20040;-84
2022/02/27 01:21:35;;;;;;;19.15;11.10;;;3.00;70.80;;;;;;5092343;28;20093;-84
2022/02/27 01:24:02;;;;;;;20.10;10.13;;;3.00;70.90;;;;;;5092376;28;20047;-83
2022/02/27 01:26:31;;;;;;;18.65;10.27;;;3.00;70.90;;;;;;5092390;28;20395;-84
2022/02/27 01:28:58;;;;;;;19.73;10.35;;;3.00;70.90;;;;;;5092876;28;20052;-83
2022/02/27 01:31:25;;;;;;;20.58;9.32;;;2.90;70.90;;;;;;5092186;28;20040;-84
2022/02/27 01:33:52;;;;;;;18.83;8.82;;;3.00;71.00;;;;;;5091655;28;20317;-84
2022/02/27 01:36:19;;;;;;;16.85;8.48;;;3.00;71.00;;;;;;5092016;28;20044;-84
2022/02/27 01:38:46;;;;;;;22.08;9.65;;;2.90;71.10;;;;;;5074187;28;20044;-84
2022/02/27 01:41:13;;;;;;;19.88;7.60;;;2.90;71.10;;;;;;5092407;28;20149;-84
2022/02/27 01:43:42;;;;;;;15.15;7.78;;;2.90;71.20;;;;;;5092350;28;20055;-84
2022/02/27 01:46:10;;;;;;;19.15;7.55;;;2.90;71.20;;;;;;5091953;28;20067;-84
2022/02/27 01:48:38;;;;;;;18.35;7.40;;;2.90;71.20;;;;;;5091482;28;20232;-84
2022/02/27 01:51:06;;;;;;;17.70;7.60;;;2.90;71.20;;;;;;5091934;28;20135;-84
2022/02/27 01:53:33;;;;;;;18.40;6.68;;;2.90;71.30;;;;;;5091750;28;20464;-84
2022/02/27 01:56:01;;;;;;;12.10;6.78;;;2.90;71.30;;;;;;5092316;28;20120;-84
2022/02/27 01:58:28;;;;;;;15.80;5.82;;;2.90;71.30;;;;;;5091880;28;20044;-85
2022/02/27 02:00:57;;;;;;;13.10;5.47;;;2.90;71.30;;;;;;5091346;28;20047;-85
2022/02/27 02:03:25;;;;;;;14.25;5.70;;;2.90;71.40;;;;;;5091611;28;20052;-84
2022/02/27 02:05:53;;;;;;;12.55;5.53;;;2.90;71.30;;;;;;5091875;28;20131;-85
2022/02/27 02:08:20;;;;;;;12.60;5.43;;;2.90;71.40;;;;;;5091935;28;20453;-85
2022/02/27 02:10:47;;;;;;;14.77;5.00;;;2.90;71.40;;;;;;5092228;28;20094;-85
2022/02/27 02:13:14;;;;;;;12.30;4.70;;;2.90;71.40;;;;;;5073740;28;20109;-85
2022/02/27 02:15:41;;;;;;;17.40;5.32;;;2.90;71.40;;;;;;5091147;28;20048;-85
2022/02/27 02:18:10;;;;;;;13.32;4.45;;;2.90;71.40;;;;;;5091763;28;20044;-85
2022/02/27 02:20:37;;;;;;;10.35;4.15;;;2.90;71.40;;;;;;5094946;28;20056;-85
2022/02/27 02:23:04;;;;;;;18.15;5.15;;;2.90;71.40;;;;;;5096431;28;20464;-85
2022/02/27 02:25:31;;;;;;;12.60;4.75;;;2.90;71.40;;;;;;5095658;28;20052;-85
2022/02/27 02:27:59;;;;;;;15.18;4.30;;;2.90;71.40;;;;;;5095741;28;20101;-85
2022/02/27 02:30:26;;;;;;;16.80;3.88;;;2.90;71.40;;;;;;5095313;28;20510;-85
2022/02/27 02:32:56;;;;;;;15.77;4.43;;;2.90;71.50;;;;;;5095582;28;20135;-84
2022/02/27 02:35:25;;;;;;;13.20;4.25;;;2.90;71.40;;;;;;5095582;28;20451;-85
2022/02/27 02:37:53;;;;;;;23.30;4.72;;;2.90;71.50;;;;;;5093111;28;20052;-85
2022/02/27 02:40:25;;;;;;;15.02;4.07;;;2.80;71.50;;;;;;5095278;28;20460;-85
2022/02/27 02:42:54;;;;;;;12.13;4.33;;;2.80;71.40;;;;;;5095373;28;20044;-85
2022/02/27 02:45:20;;;;;;;12.20;3.65;;;2.80;71.50;;;;;;5094977;28;20294;-85
2022/02/27 02:47:51;;;;;;;11.90;3.53;;;2.80;71.50;;;;;;5095546;28;20052;-85
2022/02/27 02:50:20;;;;;;;13.10;3.67;;;2.80;71.50;;;;;;5095444;28;20051;-85
2022/02/27 02:52:47;;;;;;;11.25;4.00;;;2.80;71.50;;;;;;5095490;28;20448;-85
2022/02/27 02:55:17;;;;;;;11.25;3.30;;;2.80;71.50;;;;;;5094975;28;20044;-85
2022/02/27 02:57:44;;;;;;;18.48;3.72;;;2.80;71.50;;;;;;5095200;28;20044;-85
2022/02/27 03:00:12;;;;;;;14.52;3.85;;;2.80;71.40;;;;;;5094884;28;20048;-85
2022/02/27 03:02:39;;;;;;;9.93;3.35;;;2.80;71.40;;;;;;5079061;28;20040;-85
2022/02/27 03:05:08;;;;;;;10.95;3.47;;;2.80;71.40;;;;;;5091649;28;20044;-85
2022/02/27 03:07:36;;;;;;;10.82;3.53;;;2.80;71.30;;;;;;5094988;28;20047;-85
2022/02/27 03:10:05;;;;;;;11.15;3.22;;;2.80;71.30;;;;;;5094948;28;20043;-85
2022/02/27 03:12:32;;;;;;;10.90;2.78;;;2.80;71.20;;;;;;5094728;28;20048;-85
2022/02/27 03:14:59;;;;;;;12.27;2.95;;;2.80;71.20;;;;;;5094515;28;20085;-85
2022/02/27 03:17:26;;;;;;;16.63;3.90;;;2.80;71.20;;;;;;5094890;28;20464;-85
2022/02/27 03:19:54;;;;;;;10.55;3.10;;;2.80;71.20;;;;;;5095281;28;20040;-85
2022/02/27 03:22:20;;;;;;;7.85;3.00;;;2.80;71.10;;;;;;5094678;28;20459;-85
2022/02/27 03:24:47;;;;;;;11.73;3.60;;;2.80;71.10;;;;;;5094598;28;20090;-85
2022/02/27 03:27:14;;;;;;;12.02;3.30;;;2.80;71.00;;;;;;5094536;28;20048;-85
2022/02/27 03:29:41;;;;;;;14.48;3.30;;;2.80;71.00;;;;;;5094362;28;20044;-85
2022/02/27 03:32:08;;;;;;;6.88;3.33;;;2.80;71.00;;;;;;5093792;28;20048;-86
2022/02/27 03:34:35;;;;;;;17.23;3.55;;;2.80;71.00;;;;;;5094525;28;20131;-85
2022/02/27 03:37:04;;;;;;;9.45;3.00;;;2.80;70.90;;;;;;5094308;28;20044;-85
2022/02/27 03:39:32;;;;;;;9.65;2.97;;;2.80;70.90;;;;;;5094242;28;20525;-86
2022/02/27 03:41:59;;;;;;;10.10;3.55;;;2.80;70.90;;;;;;5094388;28;20056;-85
2022/02/27 03:44:26;;;;;;;12.10;3.53;;;2.70;70.80;;;;;;5093943;28;20048;-85
2022/02/27 03:46:53;;;;;;;10.95;2.92;;;2.70;70.80;;;;;;5094763;28;20081;-85
2022/02/27 03:49:20;;;;;;;12.57;2.95;;;2.70;70.80;;;;;;5094034;28;20052;-85
2022/02/27 03:51:47;;;;;;;10.50;2.97;;;2.70;70.80;;;;;;5093953;28;20043;-85
2022/02/27 03:54:17;;;;;;;10.95;3.40;;;2.70;70.70;;;;;;5093964;28;20577;-86
2022/02/27 03:56:44;;;;;;;12.88;3.20;;;2.70;70.70;;;;;;5093988;28;20117;-86
2022/02/27 03:59:11;;;;;;;8.95;3.10;;;2.70;70.70;;;;;;5094165;28;20505;-86
2022/02/27 04:01:39;;;;;;;10.52;2.78;;;2.70;70.70;;;;;;5093799;28;20051;-86
2022/02/27 04:04:06;;;;;;;11.68;3.00;;;2.70;70.70;;;;;;5093844;28;20097;-85
2022/02/27 04:06:33;;;;;;;10.90;2.75;;;2.70;70.70;;;;;;5093727;28;20055;-85
2022/02/27 04:09:00;;;;;;;14.00;3.30;;;2.70;70.60;;;;;;5093895;28;20442;-86
2022/02/27 04:11:27;;;;;;;13.05;2.88;;;2.70;70.60;;;;;;5093331;28;20048;-86
2022/02/27 04:13:54;;;;;;;13.00;3.33;;;2.60;70.60;;;;;;5094137;28;20097;-86
2022/02/27 04:16:22;;;;;;;13.00;3.20;;;2.60;70.60;;;;;;5093753;28;20097;-86
2022/02/27 04:18:50;;;;;;;13.32;3.55;;;2.60;70.50;;;;;;5093527;28;20048;-86
2022/02/27 04:21:17;;;;;;;9.35;2.50;;;2.60;70.50;;;;;;5093630;28;20044;-86
2022/02/27 04:23:44;;;;;;;9.43;2.53;;;2.60;70.50;;;;;;5093601;28;20036;-86
2022/02/27 04:26:11;;;;;;;10.30;2.83;;;2.60;70.50;;;;;;5093490;28;20048;-86
2022/02/27 04:28:38;;;;;;;8.98;2.83;;;2.60;70.40;;;;;;5075316;28;20051;-86
2022/02/27 04:31:05;;;;;;;7.95;2.63;;;2.60;70.40;;;;;;5093340;28;20044;-86
2022/02/27 04:33:32;;;;;;;12.77;3.20;;;2.50;70.40;;;;;;5093203;28;20048;-86
2022/02/27 04:35:59;;;;;;;8.60;2.25;;;2.60;70.40;;;;;;5075269;28;20040;-86
2022/02/27 04:38:28;;;;;;;17.00;3.22;;;2.60;70.40;;;;;;5093204;28;20101;-86
2022/02/27 04:40:55;;;;;;;13.98;2.80;;;2.60;70.40;;;;;;5093393;28;20052;-86
2022/02/27 04:43:22;;;;;;;14.00;2.95;;;2.50;70.40;;;;;;5092547;28;20567;-86
2022/02/27 04:45:49;;;;;;;10.00;2.78;;;2.60;70.30;;;;;;5092970;28;20059;-85
2022/02/27 04:48:16;;;;;;;14.48;3.17;;;2.50;70.30;;;;;;5075147;28;20138;-86
2022/02/27 04:50:44;;;;;;;9.65;2.65;;;2.50;70.30;;;;;;5092762;28;20468;-86
2022/02/27 04:53:11;;;;;;;12.98;2.97;;;2.50;70.20;;;;;;5093182;28;20052;-85
2022/02/27 04:55:38;;;;;;;14.43;3.25;;;2.50;70.20;;;;;;5092332;28;20048;-85
2022/02/27 04:58:05;;;;;;;9.85;2.47;;;2.50;70.20;;;;;;5092724;28;20513;-85
2022/02/27 05:00:35;;;;;;;10.48;2.80;;;2.50;70.20;;;;;;5092622;28;20043;-86
2022/02/27 05:03:02;;;;;;;11.43;2.50;;;2.50;70.20;;;;;;5092668;28;20506;-86
2022/02/27 05:05:29;;;;;;;14.38;2.97;;;2.50;70.10;;;;;;5092876;28;20048;-86
2022/02/27 05:07:56;;;;;;;12.10;3.00;;;2.50;70.10;;;;;;5093175;28;20059;-86
2022/02/27 05:10:23;;;;;;;8.50;2.50;;;2.50;70.10;;;;;;5092373;28;20044;-86
2022/02/27 05:12:50;;;;;;;13.70;2.90;;;2.50;70.10;;;;;;5092607;28;20048;-86
2022/02/27 05:15:17;;;;;;;9.05;2.83;;;2.50;70.10;;;;;;5074373;28;20044;-85
2022/02/27 05:17:44;;;;;;;10.38;2.60;;;2.50;70.00;;;;;;5074640;28;20040;-86
2022/02/27 05:20:11;;;;;;;9.25;2.97;;;2.50;70.00;;;;;;5092833;28;20070;-86
2022/02/27 05:22:44;;;;;;;12.02;2.90;;;2.50;70.00;;;;;;5092737;28;20044;-86
2022/02/27 05:25:12;;;;;;;10.88;2.50;;;2.50;69.90;;;;;;5091947;28;20436;-86
2022/02/27 05:27:40;;;;;;;10.27;2.70;;;2.50;69.90;;;;;;5092334;28;20047;-86
2022/02/27 05:30:07;;;;;;;12.05;2.70;;;2.50;69.90;;;;;;5092193;28;20105;-86
2022/02/27 05:32:34;;;;;;;11.45;2.33;;;2.50;69.90;;;;;;5092242;28;20052;-85
2022/02/27 05:35:01;;;;;;;8.52;2.45;;;2.50;69.90;;;;;;5092849;28;20097;-85
2022/02/27 05:37:28;;;;;;;8.63;2.72;;;2.50;69.80;;;;;;5074089;28;20055;-86
2022/02/27 05:39:56;;;;;;;10.20;2.47;;;2.50;69.80;;;;;;5091695;28;20464;-86
2022/02/27 05:42:22;;;;;;;11.13;2.65;;;2.50;69.80;;;;;;5091905;28;20101;-85
2022/02/27 05:44:49;;;;;;;9.25;2.42;;;2.50;69.80;;;;;;5092169;28;20036;-86
2022/02/27 05:47:16;;;;;;;11.18;2.72;;;2.50;69.80;;;;;;5074433;28;20063;-86
2022/02/27 05:49:43;;;;;;;11.68;2.85;;;2.50;69.70;;;;;;5091599;28;20048;-86
2022/02/27 05:52:11;;;;;;;8.80;2.65;;;2.50;69.70;;;;;;5091668;28;20063;-86
2022/02/27 05:54:38;;;;;;;7.35;2.60;;;2.50;69.70;;;;;;5090741;28;20570;-86
2022/02/27 05:57:05;;;;;;;9.32;2.38;;;2.40;69.70;;;;;;5073915;28;20043;-86
2022/02/27 05:59:32;;;;;;;9.77;2.38;;;2.40;69.70;;;;;;5091991;28;20074;-86
2022/02/27 06:01:59;;;;;;;9.73;2.38;;;2.40;69.70;;;;;;5092375;28;20081;-86
2022/02/27 06:04:26;;;;;;;8.70;2.40;;;2.40;69.70;;;;;;5091759;28;20040;-86
2022/02/27 06:06:55;;;;;;;9.25;2.70;;;2.40;69.70;;;;;;5091639;28;20048;-87
2022/02/27 06:09:22;;;;;;;13.23;2.58;;;2.40;69.70;;;;;;5091306;28;20052;-86
2022/02/27 06:11:49;;;;;;;8.95;2.72;;;2.40;69.80;;;;;;5091824;28;20044;-87
2022/02/27 06:14:15;;;;;;;7.82;2.47;;;2.40;69.80;;;;;;5092046;28;20044;-86
2022/02/27 06:16:42;;;;;;;8.60;2.47;;;2.40;69.80;;;;;;5073056;28;20506;-86
2022/02/27 06:19:10;;;;;;;13.65;3.08;;;2.40;69.80;;;;;;5091649;28;20056;-86
2022/02/27 06:21:37;;;;;;;9.20;2.72;;;2.40;69.90;;;;;;5091640;28;20051;-86
2022/02/27 06:24:04;;;;;;;10.60;2.97;;;2.30;69.80;;;;;;5091304;28;20040;-86
2022/02/27 06:26:32;;;;;;;6.68;2.50;;;2.30;69.90;;;;;;5091730;28;20517;-87
2022/02/27 06:29:02;;;;;;;7.35;2.30;;;2.40;69.90;;;;;;5092097;28;20055;-87
2022/02/27 06:31:30;;;;;;;12.10;2.67;;;2.30;69.90;;;;;;5091539;28;20105;-87
2022/02/27 06:33:57;;;;;;;9.40;2.40;;;2.30;69.90;;;;;;5091327;28;20070;-87
2022/02/27 06:36:24;;;;;;;11.90;2.92;;;2.30;69.90;;;;;;5091085;28;20125;-85
2022/02/27 06:38:51;;;;;;;8.57;2.60;;;2.30;69.90;;;;;;5091543;28;20048;-87
2022/02/27 06:41:18;;;;;;;11.02;3.00;;;2.30;69.90;;;;;;5091826;28;20101;-88
2022/02/27 06:43:45;;;;;;;7.70;2.42;;;2.30;69.90;;;;;;5091844;28;20052;-87
2022/02/27 06:46:12;;;;;;;9.65;2.58;;;2.30;70.00;;;;;;5091311;28;20528;-87
2022/02/27 06:48:39;;;;;;;12.05;2.70;;;2.20;70.00;;;;;;5091166;28;20054;-87
2022/02/27 06:51:09;;;;;;;9.30;3.00;;;2.20;70.00;;;;;;5091049;28;20506;-87
2022/02/27 06:53:38;;;;;;;9.02;2.72;;;2.20;70.10;;;;;;5075077;28;20520;-87
2022/02/27 06:56:06;;;;;;;8.10;2.58;;;2.20;70.10;;;;;;5091854;28;20052;-87
2022/02/27 06:58:33;;;;;;;6.70;2.40;;;2.10;70.20;;;;;;5091308;28;20051;-87
2022/02/27 07:01:00;;;;;;;10.88;2.60;;;2.20;70.20;;;;;;5073315;28;20050;-87
2022/02/27 07:03:27;;;;;;;11.18;3.08;;;2.10;70.20;;;;;;5091116;28;20086;-87
2022/02/27 07:05:54;;;;;;;6.55;2.33;;;2.10;70.20;;;;;;5108447;27;20048;-87
2022/02/27 07:08:21;;;;;;;8.68;2.47;;;2.10;70.30;;;;;;5095280;28;20052;-87
2022/02/27 07:10:48;;;;;;;14.00;2.92;;;2.10;70.30;;;;;;5095487;28;20048;-86
2022/02/27 07:13:15;;;;;;;8.77;2.67;;;2.10;70.40;;;;;;5094758;28;20044;-87
2022/02/27 07:15:42;;;;;;;8.55;2.40;;;2.10;70.40;;;;;;5094769;28;20052;-87
2022/02/27 07:18:09;;;;;;;12.18;2.80;;;2.10;70.50;;;;;;5094913;28;20048;-87
2022/02/27 07:20:36;;;;;;;7.03;2.28;;;2.00;70.50;;;;;;5094494;28;20468;-86
2022/02/27 07:23:03;;;;;;;8.80;2.60;;;2.10;70.50;;;;;;5095307;28;20044;-86
2022/02/27 07:25:30;;;;;;;12.15;2.45;;;2.10;70.60;;;;;;5094615;28;20048;-86
2022/02/27 07:27:57;;;;;;;8.32;2.65;;;2.10;70.60;;;;;;5094360;28;20109;-87
2022/02/27 07:30:24;;;;;;;8.27;2.15;;;2.10;70.60;;;;;;5076554;28;20040;-86
2022/02/27 07:32:51;;;;;;;9.63;3.00;;;2.10;70.70;;;;;;5094598;28;20093;-87
2022/02/27 07:35:19;;;;;;;11.13;2.70;;;2.10;70.70;;;;;;5094398;28;20399;-86
2022/02/27 07:37:46;;;;;;;10.90;2.65;;;2.10;70.80;;;;;;5094785;28;20516;-86
2022/02/27 07:40:13;;;;;;;10.65;2.78;;;2.20;70.80;;;;;;5094595;28;20055;-86
2022/02/27 07:42:40;;;;;;;8.00;2.55;;;2.10;70.80;;;;;;5094270;28;20044;-85
2022/02/27 07:45:08;;;;;;;9.48;2.20;;;2.20;70.80;;;;;;5094492;28;20044;-87
2022/02/27 07:47:35;;;;;;;12.02;2.33;;;2.20;70.90;;;;;;5094376;28;20523;-85
2022/02/27 07:50:02;;;;;;;9.18;2.63;;;2.20;70.90;;;;;;5094500;28;20040;-86
2022/02/27 07:52:29;;;;;;;10.98;2.72;;;2.20;70.90;;;;;;5094024;28;20056;-85
2022/02/27 07:54:57;;;;;;;9.77;2.67;;;2.20;70.90;;;;;;5094064;28;20070;-85
2022/02/27 07:57:26;;;;;;;10.88;3.10;;;2.30;70.90;;;;;;5093846;28;20044;-84
2022/02/27 07:59:53;;;;;;;10.32;2.53;;;2.30;70.90;;;;;;5094051;28;20047;-85
2022/02/27 08:02:20;;;;;;;9.88;3.00;;;2.40;70.90;;;;;;5094161;28;20052;-84
2022/02/27 08:04:47;;;;;;;12.13;2.63;;;2.40;71.00;;;;;;5094014;28;20044;-84
2022/02/27 08:07:13;;;;;;;9.82;2.88;;;2.40;71.00;;;;;;5093723;28;20048;-84
2022/02/27 08:09:41;;;;;;;10.65;2.60;;;2.40;71.00;;;;;;5092326;28;20044;-84
2022/02/27 08:12:08;;;;;;;8.88;2.03;;;2.40;71.00;;;;;;5100548;28;20048;-84
2022/02/27 08:14:35;;;;;;;10.95;2.38;;;2.50;71.00;;;;;;5093385;28;20752;-84
2022/02/27 08:17:03;;;;;;;11.40;2.58;;;2.50;71.10;;;;;;5093282;28;20125;-84
2022/02/27 08:19:32;;;;;;;11.40;2.60;;;2.50;71.10;;;;;;5093098;28;20111;-84
2022/02/27 08:21:59;;;;;;;10.82;2.40;;;2.50;71.00;;;;;;5093377;28;20040;-84
2022/02/27 08:24:26;;;;;;;8.35;2.70;;;2.60;71.00;;;;;;5093119;28;20498;-85
2022/02/27 08:26:53;;;;;;;14.82;3.17;;;2.60;71.00;;;;;;5093179;28;20510;-86
2022/02/27 08:29:19;;;;;;;12.07;2.80;;;2.70;71.00;;;;;;5093335;28;20040;-87
2022/02/27 08:31:47;;;;;;;8.63;2.35;;;2.70;70.90;;;;;;5093691;28;20059;-88
2022/02/27 08:34:14;;;;;;;10.38;2.67;;;2.80;70.80;;;;;;5092682;28;20044;-87
2022/02/27 08:36:41;;;;;;;7.82;2.30;;;2.80;70.70;;;;;;5074931;28;20145;-88
2022/02/27 08:39:09;;;;;;;10.48;2.90;;;2.90;70.60;;;;;;5093223;28;20568;-88
2022/02/27 08:41:38;;;;;;;14.25;2.70;;;2.90;70.60;;;;;;5059453;28;20051;-89
2022/02/27 08:44:06;;;;;;;12.82;2.33;;;2.90;70.60;;;;;;5075803;28;20059;-89
2022/02/27 08:46:33;;;;;;;8.48;2.38;;;2.90;70.50;;;;;;5092979;28;20060;-90
2022/02/27 08:49:00;;;;;;;11.77;2.85;;;3.00;70.50;;;;;;5092755;28;20075;-89
2022/02/27 08:51:27;;;;;;;7.72;2.25;;;3.00;70.40;;;;;;5092905;28;20057;-88
2022/02/27 08:53:55;;;;;;;12.95;2.88;;;3.10;70.40;;;;;;5092874;28;20074;-88
2022/02/27 08:56:22;;;;;;;11.15;2.67;;;3.10;70.30;;;;;;5093108;28;20456;-89
2022/02/27 08:58:49;;;;;;;11.02;3.03;;;3.20;70.30;;;;;;5093364;28;20048;-88
2022/02/27 09:01:16;;;;;;;7.70;2.42;;;3.20;70.20;;;;;;5092772;28;20051;-88
2022/02/27 09:03:44;;;;;;;10.60;2.58;;;3.30;70.10;;;;;;5091386;28;20134;-90
2022/02/27 09:06:11;;;;;;;13.27;2.47;;;3.40;70.10;;;;;;5102250;28;20047;-88
2022/02/27 09:08:41;;;;;;;6.90;2.67;;;3.40;70.00;;;;;;5076284;28;20134;-89
2022/02/27 09:11:09;;;;;;;9.35;2.53;;;3.40;69.90;;;;;;5089121;28;20044;-88
2022/02/27 09:13:36;;;;;;;12.57;2.92;;;3.50;69.70;;;;;;5092429;28;20052;-89
2022/02/27 09:16:04;;;;;;;10.63;2.25;;;3.60;69.60;;;;;;5091835;28;20044;-88
2022/02/27 09:18:32;;;;;;;10.63;2.55;;;3.60;69.50;;;;;;5105335;28;20052;-89
2022/02/27 09:20:59;;;;;;;10.70;2.58;;;3.70;69.40;;;;;;5078616;28;20391;-89
2022/02/27 09:23:26;;;;;;;10.55;2.88;;;3.80;69.30;;;;;;5091887;28;20044;-89
2022/02/27 09:25:54;;;;;;;11.23;2.85;;;3.90;69.20;;;;;;5074730;28;20048;-90
2022/02/27 09:28:40;;;;;;;7.57;2.28;;;3.90;69.00;;;;;;5093145;28;20056;-91
2022/02/27 09:31:07;;;;;;;9.48;2.70;;;4.00;68.90;;;;;;5087755;28;20051;-90
2022/02/27 09:33:34;;;;;;;9.60;2.80;;;4.00;68.70;;;;;;5092155;28;20047;-91
2022/02/27 09:36:01;;;;;;;8.85;2.50;;;4.20;68.50;;;;;;5092341;28;20052;-90
2022/02/27 09:38:28;;;;;;;10.05;3.00;;;4.30;68.40;;;;;;5092229;28;20052;-90
2022/02/27 09:40:58;;;;;;;11.07;2.30;;;4.30;68.20;;;;;;5074807;28;20047;-89
2022/02/27 09:43:25;;;;;;;9.45;2.17;;;4.40;68.10;;;;;;5091989;28;20067;-89
2022/02/27 09:45:54;;;;;;;7.10;2.45;;;4.50;68.00;;;;;;5091641;28;20052;-88
2022/02/27 09:48:21;;;;;;;9.77;2.30;;;4.60;67.80;;;;;;5074223;28;20490;-90
2022/02/27 09:50:50;;;;;;;10.68;3.50;;;4.60;67.60;;;;;;5092077;28;20055;-88
2022/02/27 09:53:18;;;;;;;8.93;2.50;;;4.80;67.40;;;;;;5057880;28;20053;-88
2022/02/27 09:55:45;;;;;;;13.70;4.45;;;4.90;67.10;;;;;;5051421;28;20049;-88
2022/02/27 09:58:12;;;;;;;9.07;3.15;;;5.00;66.80;;;;;;5051588;28;20057;-87
2022/02/27 10:00:39;;;;;;;9.70;3.65;;;5.10;66.50;;;;;;5051243;28;20511;-89
2022/02/27 10:03:12;;;;;;;9.32;3.13;;;5.20;66.30;;;;;;5051402;28;20513;-88
2022/02/27 10:05:47;;;;;;;9.90;3.30;;;5.40;66.10;;;;;;5035668;28;20041;-88
2022/02/27 10:08:16;;;;;;;9.50;2.58;;;5.50;65.90;;;;;;5048551;28;20060;-89
2022/02/27 10:10:58;;;;;;;8.73;2.55;;;5.60;65.70;;;;;;5051082;28;20049;-89
2022/02/27 10:13:36;;;;;;;8.93;2.92;;;5.80;65.40;;;;;;5051428;28;20048;-88
2022/02/27 10:16:10;;;;;;;9.93;2.97;;;5.90;65.10;;;;;;5049876;28;20060;-88
2022/02/27 10:18:47;;;;;;;10.17;3.23;;;6.00;64.70;;;;;;5051298;28;20048;-89
2022/02/27 10:21:23;;;;;;;9.27;3.10;;;6.10;64.20;;;;;;5051400;28;20068;-88
2022/02/27 10:24:12;;;;;;;9.07;3.47;;;6.20;63.90;;;;;;5051612;28;20053;-88
2022/02/27 10:26:43;;;;;;;8.77;2.72;;;6.30;63.60;;;;;;5035659;28;20037;-88
2022/02/27 10:29:14;;;;;;;12.20;3.88;;;6.40;63.30;;;;;;5047832;28;20053;-88
2022/02/27 10:31:46;;;;;;;11.85;3.38;;;6.40;63.10;;;;;;5051411;28;20099;-89
2022/02/27 10:34:34;;;;;;;8.25;3.28;;;6.60;62.80;;;;;;5051248;28;20063;-88
2022/02/27 10:37:05;;;;;;;11.05;3.28;;;6.60;62.40;;;;;;5051238;28;20518;-88
2022/02/27 10:39:45;;;;;;;8.30;3.00;;;6.70;62.20;;;;;;5051286;28;20175;-88
2022/02/27 10:42:17;;;;;;;6.80;2.58;;;6.80;61.90;;;;;;5055176;28;20509;-88
2022/02/27 10:44:54;;;;;;;9.45;2.85;;;6.90;61.80;;;;;;5039699;28;20048;-88
2022/02/27 10:47:35;;;;;;;8.90;2.85;;;6.90;61.50;;;;;;5055610;28;20511;-88
2022/02/27 10:50:08;;;;;;;6.32;2.33;;;6.90;61.30;;;;;;5055087;28;20044;-88
2022/02/27 10:52:44;;;;;;;9.40;2.70;;;7.00;61.20;;;;;;5069776;28;20084;-88
2022/02/27 10:55:13;;;;;;;11.30;2.63;;;7.10;61.00;;;;;;5095290;28;20044;-90
2022/02/27 10:57:45;;;;;;;10.85;2.40;;;7.20;60.80;;;;;;5094722;28;20047;-88
2022/02/27 11:00:23;;;;;;;8.80;2.78;;;7.20;60.60;;;;;;5095244;28;20047;-88
2022/02/27 11:03:04;;;;;;;11.68;2.80;;;7.30;60.60;;;;;;5062675;28;20058;-88
2022/02/27 11:05:34;;;;;;;8.30;2.28;;;7.40;60.60;;;;;;5095131;28;20048;-89
2022/02/27 11:08:04;;;;;;;13.73;3.00;;;7.40;60.50;;;;;;5095587;28;20052;-88
2022/02/27 11:10:36;;;;;;;9.50;2.53;;;7.50;60.30;;;;;;5095001;28;20044;-87
2022/02/27 11:13:09;;;;;;;11.43;2.78;;;7.50;60.10;;;;;;5094555;28;20051;-87
2022/02/27 11:15:37;;;;;;;6.70;2.47;;;7.60;59.90;;;;;;5094804;28;20109;-88
2022/02/27 11:18:06;;;;;;;9.50;2.70;;;7.60;59.60;;;;;;5076854;28;20044;-88
2022/02/27 11:20:34;;;;;;;9.73;2.88;;;7.70;59.50;;;;;;5094751;28;20047;-88
2022/02/27 11:23:01;;;;;;;6.82;2.17;;;7.80;59.50;;;;;;5095433;28;20047;-89
2022/02/27 11:25:29;;;;;;;12.43;2.75;;;7.80;59.50;;;;;;5094592;28;20529;-88
2022/02/27 11:28:03;;;;;;;6.78;2.30;;;7.80;59.40;;;;;;5094186;28;20044;-89
2022/02/27 11:30:34;;;;;;;8.93;2.47;;;7.90;59.20;;;;;;5094515;28;20533;-88
2022/02/27 11:33:06;;;;;;;8.55;2.65;;;7.90;59.10;;;;;;5094595;28;20044;-88
2022/02/27 11:35:43;;;;;;;7.00;2.50;;;7.90;59.00;;;;;;5094610;28;20491;-88
2022/02/27 11:38:15;;;;;;;9.88;2.63;;;8.00;59.00;;;;;;5091094;28;20048;-89
2022/02/27 11:40:57;;;;;;;8.63;2.50;;;8.00;58.90;;;;;;5093734;28;20105;-88
2022/02/27 11:43:55;;;;;;;10.70;2.78;;;8.00;58.80;;;;;;5076232;28;20044;-89
2022/02/27 11:46:41;;;;;;;10.63;2.78;;;8.00;58.60;;;;;;5094337;28;20051;-88
2022/02/27 11:49:22;;;;;;;10.48;2.90;;;8.10;58.50;;;;;;5094167;28;20044;-89
2022/02/27 11:52:01;;;;;;;9.02;3.08;;;8.10;58.50;;;;;;5092830;28;20047;-89
2022/02/27 11:54:55;;;;;;;10.90;3.30;;;8.10;58.30;;;;;;5076258;28;20048;-88
2022/02/27 11:57:31;;;;;;;8.23;3.13;;;8.20;57.80;;;;;;5093685;28;20517;-88
2022/02/27 12:00:05;;;;;;;6.90;2.60;;;8.20;57.70;;;;;;5076058;28;20291;-88
2022/02/27 12:02:48;;;;;;;8.18;2.83;;;8.20;57.60;;;;;;5094074;28;20478;-89
2022/02/27 12:05:20;;;;;;;6.78;2.90;;;8.30;57.60;;;;;;5090933;28;20540;-88
2022/02/27 12:07:59;;;;;;;9.48;2.72;;;8.30;57.40;;;;;;5093955;28;20048;-88
2022/02/27 12:10:49;;;;;;;10.30;2.90;;;8.40;57.40;;;;;;5075485;28;20048;-88
2022/02/27 12:13:30;;;;;;;11.25;2.60;;;8.40;57.40;;;;;;5093587;28;20452;-88
2022/02/27 12:16:04;;;;;;;6.80;2.50;;;8.40;57.30;;;;;;5093668;28;20048;-89
2022/02/27 12:18:48;;;;;;;8.10;2.50;;;8.40;57.30;;;;;;5093651;28;20083;-88
2022/02/27 12:21:19;;;;;;;8.10;2.83;;;8.50;57.30;;;;;;5093525;28;20063;-87
2022/02/27 12:23:48;;;;;;;7.10;2.40;;;8.50;57.20;;;;;;5093710;28;20054;-88
2022/02/27 12:26:52;;;;;;;6.35;2.47;;;8.60;57.00;;;;;;5093443;28;20050;-90
2022/02/27 12:29:22;;;;;;;7.25;2.30;;;8.60;57.00;;;;;;4992557;28;20069;-91
2022/02/27 12:31:50;;;;;;;7.55;2.70;;;8.60;56.90;;;;;;5011821;28;20054;-89
2022/02/27 12:34:19;;;;;;;7.35;2.45;;;8.60;56.80;;;;;;5011220;28;20050;-89
2022/02/27 12:36:59;;;;;;;7.32;2.40;;;8.70;56.70;;;;;;5011040;28;20038;-90
2022/02/27 12:39:31;;;;;;;6.70;2.58;;;8.80;56.60;;;;;;4994422;28;20050;-89
2022/02/27 12:41:58;;;;;;;6.05;2.38;;;8.80;56.70;;;;;;5011174;28;20049;-89
2022/02/27 12:44:32;;;;;;;8.85;2.80;;;8.90;56.70;;;;;;5011074;28;20153;-91
2022/02/27 12:47:02;;;;;;;9.00;2.67;;;8.90;56.70;;;;;;4997491;28;20117;-89
2022/02/27 12:52:22;;;;;;;8.52;2.80;;;8.90;56.40;;;;;;5010570;28;20058;-91
2022/02/27 12:54:52;;;;;;;8.57;2.40;;;9.00;56.40;;;;;;4994307;28;20057;-89
2022/02/27 12:57:20;;;;;;;8.88;2.70;;;9.00;56.40;;;;;;5010757;28;20050;-89
2022/02/27 12:59:48;;;;;;;6.57;2.40;;;9.10;56.30;;;;;;5010828;28;20042;-90
2022/02/27 13:02:22;;;;;;;7.75;2.78;;;9.10;56.10;;;;;;5014577;28;20045;-89